Time,TemperatureF,DewpointF,PressureIn,WindDirection,WindDirectionDegrees,WindSpeedMPH,WindSpeedGustMPH,Humidity,HourlyPrecipIn,Conditions,Clouds,dailyrainin,SoftwareType,DateUTC
2013-01-19 00:04:00,17.1,13.9,28.50,SSE,158,0.0,0.0,87,0.00,,---,0.00,VWS V14.01,2013-01-19 08:04:00,
2013-01-19 00:09:00,17.1,13.9,28.50,SSE,158,0.0,0.0,87,0.00,,---,0.00,VWS V14.01,2013-01-19 08:09:00,
2013-01-19 00:14:00,17.1,13.9,28.50,SSE,158,0.0,0.0,87,0.00,,---,0.00,VWS V14.01,2013-01-19 08:14:00,
2013-01-19 00:19:00,17.1,13.9,28.50,SSE,158,0.0,0.0,87,0.00,,---,0.00,VWS V14.01,2013-01-19 08:19:00,
2013-01-19 00:24:00,17.1,13.9,28.50,SSE,158,0.0,0.0,87,0.00,,---,0.00,VWS V14.01,2013-01-19 08:24:00,
2013-01-19 00:29:00,17.1,13.9,28.52,SSE,158,0.0,0.0,87,0.00,,---,0.00,VWS V14.01,2013-01-19 08:29:00,
2013-01-19 00:34:00,17.1,13.9,28.52,SSE,158,0.0,0.0,87,0.00,,---,0.00,VWS V14.01,2013-01-19 08:34:00,
2013-01-19 00:39:00,17.1,13.9,28.52,SSE,158,0.0,0.0,87,0.00,,---,0.00,VWS V14.01,2013-01-19 08:39:00,
2013-01-19 00:44:00,17.2,14.0,28.52,SSE,158,0.0,0.0,87,0.00,,---,0.00,VWS V14.01,2013-01-19 08:44:00,
2013-01-19 00:49:00,17.2,14.0,28.52,SSE,158,0.0,0.0,87,0.00,,---,0.00,VWS V14.01,2013-01-19 08:49:00,
2013-01-19 00:54:00,17.1,13.9,28.52,SSE,158,0.0,0.0,87,0.00,,---,0.00,VWS V14.01,2013-01-19 08:54:00,
2013-01-19 00:59:00,17.1,13.9,28.52,SSE,158,0.0,0.0,87,0.00,,---,0.00,VWS V14.01,2013-01-19 08:59:00,
2013-01-19 01:04:00,17.1,13.9,28.52,SSE,158,0.0,0.0,87,0.00,,---,0.00,VWS V14.01,2013-01-19 09:04:00,
2013-01-19 01:09:00,16.9,13.4,28.52,SSE,158,0.0,0.0,86,0.00,,---,0.00,VWS V14.01,2013-01-19 09:09:00,
2013-01-19 01:14:00,16.9,13.4,28.52,SSE,158,0.0,0.0,86,0.00,,---,0.00,VWS V14.01,2013-01-19 09:14:00,
2013-01-19 01:19:00,16.7,13.2,28.52,SSE,158,0.0,0.0,86,0.00,,---,0.00,VWS V14.01,2013-01-19 09:19:00,
2013-01-19 01:24:00,16.5,12.8,28.52,SSE,158,0.0,0.0,85,0.00,,---,0.00,VWS V14.01,2013-01-19 09:24:00,
2013-01-19 01:29:00,16.5,12.8,28.52,SSE,158,0.0,0.0,85,0.00,,---,0.00,VWS V14.01,2013-01-19 09:29:00,
2013-01-19 01:34:00,16.3,12.6,28.52,SSE,158,0.0,0.0,85,0.00,,---,0.00,VWS V14.01,2013-01-19 09:34:00,
2013-01-19 01:39:00,16.2,12.4,28.52,SSE,158,0.0,0.0,85,0.00,,---,0.00,VWS V14.01,2013-01-19 09:39:00,
2013-01-19 01:44:00,16.2,12.4,28.52,SSE,158,0.0,0.0,85,0.00,,---,0.00,VWS V14.01,2013-01-19 09:44:00,
2013-01-19 01:49:00,16.2,12.4,28.52,SSE,158,0.0,0.0,85,0.00,,---,0.00,VWS V14.01,2013-01-19 09:49:00,
2013-01-19 01:54:00,16.0,12.3,28.52,SSE,158,0.0,0.0,85,0.00,,---,0.00,VWS V14.01,2013-01-19 09:54:00,
2013-01-19 01:59:00,16.0,12.3,28.52,SSE,158,0.0,0.0,85,0.00,,---,0.00,VWS V14.01,2013-01-19 09:59:00,
2013-01-19 02:04:00,15.8,12.1,28.52,SSE,158,0.0,0.0,85,0.00,,---,0.00,VWS V14.01,2013-01-19 10:04:00,
2013-01-19 02:09:00,15.4,11.8,28.52,SSE,158,0.0,0.0,85,0.00,,---,0.00,VWS V14.01,2013-01-19 10:09:00,
2013-01-19 02:14:00,15.3,11.6,28.52,SSE,158,0.0,0.0,85,0.00,,---,0.00,VWS V14.01,2013-01-19 10:14:00,
2013-01-19 02:19:00,15.3,11.3,28.52,SSE,158,0.0,0.0,84,0.00,,---,0.00,VWS V14.01,2013-01-19 10:19:00,
2013-01-19 02:24:00,14.9,10.9,28.52,SSE,158,0.0,0.0,84,0.00,,---,0.00,VWS V14.01,2013-01-19 10:24:00,
2013-01-19 02:29:00,14.9,10.9,28.52,SSE,158,0.0,0.0,84,0.00,,---,0.00,VWS V14.01,2013-01-19 10:29:00,
2013-01-19 02:34:00,14.5,10.6,28.52,SSE,158,0.0,0.0,84,0.00,,---,0.00,VWS V14.01,2013-01-19 10:34:00,
2013-01-19 02:39:00,14.5,10.6,28.52,SSE,158,0.0,0.0,84,0.00,,---,0.00,VWS V14.01,2013-01-19 10:39:00,
2013-01-19 02:44:00,14.5,10.6,28.52,SSE,158,0.0,0.0,84,0.00,,---,0.00,VWS V14.01,2013-01-19 10:44:00,
2013-01-19 02:49:00,14.4,10.4,28.52,SSE,158,0.0,0.0,84,0.00,,---,0.00,VWS V14.01,2013-01-19 10:49:00,
2013-01-19 02:54:00,14.4,10.4,28.52,SSE,158,0.0,0.0,84,0.00,,---,0.00,VWS V14.01,2013-01-19 10:54:00,
2013-01-19 02:59:00,14.2,10.2,28.52,SSE,158,0.0,0.0,84,0.00,,---,0.00,VWS V14.01,2013-01-19 10:59:00,
2013-01-19 03:04:00,14.2,10.2,28.52,SSE,158,0.0,0.0,84,0.00,,---,0.00,VWS V14.01,2013-01-19 11:04:00,
2013-01-19 03:09:00,13.8,9.9,28.52,SSE,158,0.0,0.0,84,0.00,,---,0.00,VWS V14.01,2013-01-19 11:09:00,
2013-01-19 03:14:00,13.8,9.9,28.52,SSE,158,0.0,0.0,84,0.00,,---,0.00,VWS V14.01,2013-01-19 11:14:00,
2013-01-19 04:47:00,11.7,7.8,28.52,SSE,158,0.0,0.0,84,0.00,,---,0.00,VWS V14.01,2013-01-19 12:47:00,
2013-01-19 04:48:00,11.7,7.8,28.52,SSE,158,0.0,0.0,84,0.00,,---,0.00,VWS V14.01,2013-01-19 12:48:00,
2013-01-19 04:53:00,11.5,7.6,28.52,SSE,158,0.0,0.0,84,0.00,,---,0.00,VWS V14.01,2013-01-19 12:53:00,
2013-01-19 04:58:00,11.3,7.4,28.52,SSE,158,0.0,0.0,84,0.00,,---,0.00,VWS V14.01,2013-01-19 12:58:00,
2013-01-19 05:04:00,11.1,7.2,28.52,SSE,158,0.0,0.0,84,0.00,,---,0.00,VWS V14.01,2013-01-19 13:04:00,
2013-01-19 05:09:00,10.9,7.1,28.52,SSE,158,0.0,0.0,84,0.00,,---,0.00,VWS V14.01,2013-01-19 13:09:00,
2013-01-19 05:14:00,10.8,6.9,28.52,SSE,158,0.0,0.0,84,0.00,,---,0.00,VWS V14.01,2013-01-19 13:14:00,
2013-01-19 05:19:00,10.8,6.9,28.52,SSE,158,0.0,0.0,84,0.00,,---,0.00,VWS V14.01,2013-01-19 13:19:00,
2013-01-19 05:24:00,10.6,6.7,28.52,SSE,158,0.0,0.0,84,0.00,,---,0.00,VWS V14.01,2013-01-19 13:24:00,
2013-01-19 05:29:00,10.2,6.4,28.52,SSE,158,0.0,0.0,84,0.00,,---,0.00,VWS V14.01,2013-01-19 13:29:00,
2013-01-19 05:34:00,10.2,6.4,28.52,SSE,158,0.0,0.0,84,0.00,,---,0.00,VWS V14.01,2013-01-19 13:34:00,
2013-01-19 05:39:00,10.0,6.2,28.52,SSE,158,0.0,0.0,84,0.00,,---,0.00,VWS V14.01,2013-01-19 13:39:00,
2013-01-19 05:44:00,10.0,6.2,28.52,SSE,158,0.0,0.0,84,0.00,,---,0.00,VWS V14.01,2013-01-19 13:44:00,
2013-01-19 05:49:00,10.0,6.2,28.52,SSE,158,0.0,0.0,84,0.00,,---,0.00,VWS V14.01,2013-01-19 13:49:00,
2013-01-19 05:54:00,9.7,5.8,28.52,SSE,158,0.0,0.0,84,0.00,,---,0.00,VWS V14.01,2013-01-19 13:54:00,
2013-01-19 05:59:00,9.5,5.7,28.52,SSE,158,0.0,0.0,84,0.00,,---,0.00,VWS V14.01,2013-01-19 13:59:00,
2013-01-19 06:04:00,9.5,5.7,28.52,SSE,158,0.0,0.0,84,0.00,,---,0.00,VWS V14.01,2013-01-19 14:04:00,
2013-01-19 06:09:00,9.1,5.3,28.52,SSE,158,0.0,0.0,84,0.00,,---,0.00,VWS V14.01,2013-01-19 14:09:00,
2013-01-19 06:14:00,8.8,4.9,28.52,SSE,158,0.0,0.0,84,0.00,,---,0.00,VWS V14.01,2013-01-19 14:14:00,
2013-01-19 06:19:00,8.6,4.8,28.52,SSE,158,0.0,0.0,84,0.00,,---,0.00,VWS V14.01,2013-01-19 14:19:00,
2013-01-19 06:24:00,8.6,4.8,28.52,SSE,158,0.0,0.0,84,0.00,,---,0.00,VWS V14.01,2013-01-19 14:24:00,
2013-01-19 06:29:00,8.4,4.6,28.52,SSE,158,0.0,0.0,84,0.00,,---,0.00,VWS V14.01,2013-01-19 14:29:00,
2013-01-19 06:34:00,8.2,4.4,28.52,SSE,158,0.0,0.0,84,0.00,,---,0.00,VWS V14.01,2013-01-19 14:34:00,
2013-01-19 06:39:00,8.1,4.2,28.52,SSE,158,0.0,0.0,84,0.00,,---,0.00,VWS V14.01,2013-01-19 14:39:00,
2013-01-19 06:44:00,8.1,4.2,28.55,SSE,158,0.0,0.0,84,0.00,,---,0.00,VWS V14.01,2013-01-19 14:44:00,
2013-01-19 06:50:00,8.1,4.2,28.55,SSE,158,0.0,0.0,84,0.00,,---,0.00,VWS V14.01,2013-01-19 14:50:00,
2013-01-19 06:55:00,8.2,4.4,28.55,SSE,158,0.0,0.0,84,0.00,,---,0.00,VWS V14.01,2013-01-19 14:55:00,
2013-01-19 07:00:00,8.1,4.2,28.52,SSE,158,0.0,0.0,84,0.00,,---,0.00,VWS V14.01,2013-01-19 15:00:00,
2013-01-19 07:05:00,8.1,4.2,28.52,SSE,158,0.0,0.0,84,0.00,,---,0.00,VWS V14.01,2013-01-19 15:05:00,
2013-01-19 07:10:00,8.2,4.4,28.52,SSE,158,0.0,0.0,84,0.00,,---,0.00,VWS V14.01,2013-01-19 15:10:00,
2013-01-19 07:15:00,8.1,4.2,28.52,SSE,158,0.0,0.0,84,0.00,,---,0.00,VWS V14.01,2013-01-19 15:15:00,
2013-01-19 07:20:00,8.1,4.2,28.52,SSE,158,0.0,0.0,84,0.00,,---,0.00,VWS V14.01,2013-01-19 15:20:00,
2013-01-19 07:25:00,8.1,4.2,28.52,SSE,158,0.0,0.0,84,0.00,,---,0.00,VWS V14.01,2013-01-19 15:25:00,
2013-01-19 07:30:00,7.9,4.1,28.55,SSE,158,0.0,0.0,84,0.00,,---,0.00,VWS V14.01,2013-01-19 15:30:00,
2013-01-19 07:35:00,7.9,4.1,28.55,SSE,158,0.0,0.0,84,0.00,,---,0.00,VWS V14.01,2013-01-19 15:35:00,
2013-01-19 07:40:00,7.7,3.9,28.55,SSE,158,0.0,0.0,84,0.00,,---,0.00,VWS V14.01,2013-01-19 15:40:00,
2013-01-19 07:45:00,7.7,3.9,28.52,SSE,158,0.0,0.0,84,0.00,,---,0.00,VWS V14.01,2013-01-19 15:45:00,
2013-01-19 07:50:00,7.7,3.9,28.52,SSE,158,0.0,0.0,84,0.00,,---,0.00,VWS V14.01,2013-01-19 15:50:00,
2013-01-19 07:55:00,7.5,3.7,28.52,SSE,158,0.0,0.0,84,0.00,,---,0.00,VWS V14.01,2013-01-19 15:55:00,
2013-01-19 08:00:00,7.5,3.7,28.55,SSE,158,0.0,0.0,84,0.00,,---,0.00,VWS V14.01,2013-01-19 16:00:00,
2013-01-19 08:05:00,7.7,3.9,28.55,SSE,158,0.0,0.0,84,0.00,,---,0.00,VWS V14.01,2013-01-19 16:05:00,
2013-01-19 08:10:00,7.9,4.1,28.55,SSE,158,0.0,0.0,84,0.00,,---,0.00,VWS V14.01,2013-01-19 16:10:00,
2013-01-19 08:15:00,7.9,4.1,28.55,SSE,158,0.0,0.0,84,0.00,,---,0.00,VWS V14.01,2013-01-19 16:15:00,
2013-01-19 08:20:00,8.1,4.2,28.55,SSE,158,0.0,0.0,84,0.00,,---,0.00,VWS V14.01,2013-01-19 16:20:00,
2013-01-19 08:25:00,8.1,4.2,28.55,SSE,158,0.0,0.0,84,0.00,,---,0.00,VWS V14.01,2013-01-19 16:25:00,
2013-01-19 08:30:00,8.1,4.2,28.55,SSE,158,0.0,0.0,84,0.00,,---,0.00,VWS V14.01,2013-01-19 16:30:00,
2013-01-19 08:35:00,8.2,4.4,28.55,SSE,158,0.0,0.0,84,0.00,,---,0.00,VWS V14.01,2013-01-19 16:35:00,
2013-01-19 08:40:00,8.4,4.6,28.55,SSE,158,0.0,0.0,84,0.00,,---,0.00,VWS V14.01,2013-01-19 16:40:00,
2013-01-19 08:45:00,8.6,4.8,28.55,SSE,158,0.0,0.0,84,0.00,,---,0.00,VWS V14.01,2013-01-19 16:45:00,
2013-01-19 08:50:00,8.4,4.6,28.55,SSE,158,0.0,0.0,84,0.00,,---,0.00,VWS V14.01,2013-01-19 16:50:00,
2013-01-19 08:55:00,8.8,4.9,28.55,SSE,158,0.0,0.0,84,0.00,,---,0.00,VWS V14.01,2013-01-19 16:55:00,
2013-01-19 09:00:00,9.3,5.5,28.55,SSE,158,0.0,0.0,84,0.00,,---,0.00,VWS V14.01,2013-01-19 17:00:00,
2013-01-19 09:05:00,9.7,5.8,28.55,SSE,158,0.0,0.0,84,0.00,,---,0.00,VWS V14.01,2013-01-19 17:05:00,
2013-01-19 09:10:00,10.0,6.2,28.55,SSE,158,0.0,0.0,84,0.00,,---,0.00,VWS V14.01,2013-01-19 17:10:00,
2013-01-19 09:15:00,10.0,6.2,28.55,SSE,158,0.0,0.0,84,0.00,,---,0.00,VWS V14.01,2013-01-19 17:15:00,
2013-01-19 09:20:00,10.4,6.5,28.55,SSE,158,0.0,0.0,84,0.00,,---,0.00,VWS V14.01,2013-01-19 17:20:00,
2013-01-19 09:25:00,10.6,6.7,28.55,SSE,158,0.0,0.0,84,0.00,,---,0.00,VWS V14.01,2013-01-19 17:25:00,
2013-01-19 09:31:00,10.8,6.9,28.58,SSE,158,0.0,0.0,84,0.00,,---,0.00,VWS V14.01,2013-01-19 17:31:00,
2013-01-19 09:36:00,11.1,7.2,28.58,SSE,158,0.0,0.0,84,0.00,,---,0.00,VWS V14.01,2013-01-19 17:36:00,
2013-01-19 09:41:00,11.1,7.2,28.58,SSE,158,0.0,0.0,84,0.00,,---,0.00,VWS V14.01,2013-01-19 17:41:00,
2013-01-19 09:46:00,11.7,7.8,28.58,SSE,158,0.0,0.0,84,0.00,,---,0.00,VWS V14.01,2013-01-19 17:46:00,
2013-01-19 09:51:00,12.4,8.5,28.58,SSE,158,0.0,0.0,84,0.00,,---,0.00,VWS V14.01,2013-01-19 17:51:00,
2013-01-19 09:56:00,13.5,9.5,28.58,SSE,158,0.0,0.0,84,0.00,,---,0.00,VWS V14.01,2013-01-19 17:56:00,
2013-01-19 10:01:00,15.3,12.1,28.58,SSE,158,0.0,0.0,87,0.00,,---,0.00,VWS V14.01,2013-01-19 18:01:00,
2013-01-19 10:06:00,15.8,13.1,28.58,SSE,158,0.0,0.0,89,0.00,,---,0.00,VWS V14.01,2013-01-19 18:06:00,
2013-01-19 10:11:00,15.4,12.5,28.58,SSE,158,0.0,0.0,88,0.00,,---,0.00,VWS V14.01,2013-01-19 18:11:00,
2013-01-19 10:17:00,15.6,12.4,28.58,SSE,158,0.0,0.0,87,0.00,,---,0.00,VWS V14.01,2013-01-19 18:17:00,
2013-01-19 10:22:00,16.0,12.5,28.58,SSE,158,0.0,0.0,86,0.00,,---,0.00,VWS V14.01,2013-01-19 18:22:00,
2013-01-19 10:27:00,16.9,13.4,28.58,SSE,158,0.0,0.0,86,0.00,,---,0.00,VWS V14.01,2013-01-19 18:27:00,
2013-01-19 10:32:00,18.9,15.9,28.58,SSE,158,0.0,0.0,88,0.00,,---,0.00,VWS V14.01,2013-01-19 18:32:00,
2013-01-19 10:37:00,19.6,16.6,28.58,SSE,158,0.0,0.0,88,0.00,,---,0.00,VWS V14.01,2013-01-19 18:37:00,
2013-01-19 10:42:00,19.9,17.0,28.58,SSE,158,0.0,0.0,88,0.00,,---,0.00,VWS V14.01,2013-01-19 18:42:00,
2013-01-19 10:47:00,19.6,16.4,28.55,SSE,158,0.0,0.0,87,0.00,,---,0.00,VWS V14.01,2013-01-19 18:47:00,
2013-01-19 10:52:00,19.8,16.3,28.55,SSE,158,0.0,0.0,86,0.00,,---,0.00,VWS V14.01,2013-01-19 18:52:00,
2013-01-19 10:57:00,19.9,16.4,28.55,SSE,158,0.0,0.0,86,0.00,,---,0.00,VWS V14.01,2013-01-19 18:57:00,
2013-01-19 11:02:00,20.3,16.8,28.55,SSE,158,0.0,0.0,86,0.00,,---,0.00,VWS V14.01,2013-01-19 19:02:00,
2013-01-19 11:07:00,21.4,18.1,28.55,SSE,158,0.0,0.0,87,0.00,,---,0.00,VWS V14.01,2013-01-19 19:07:00,
2013-01-19 11:12:00,21.9,18.6,28.55,SSE,158,0.0,0.0,87,0.00,,---,0.00,VWS V14.01,2013-01-19 19:12:00,
2013-01-19 11:17:00,22.1,18.8,28.55,SSE,158,0.0,0.0,87,0.00,,---,0.00,VWS V14.01,2013-01-19 19:17:00,
2013-01-19 11:22:00,22.5,18.9,28.55,SSE,158,0.0,0.0,86,0.00,,---,0.00,VWS V14.01,2013-01-19 19:22:00,
2013-01-19 11:27:00,23.0,19.2,28.55,SSE,158,0.0,0.0,85,0.00,,---,0.00,VWS V14.01,2013-01-19 19:27:00,
2013-01-19 11:32:00,23.2,19.4,28.55,SSE,158,0.0,0.0,85,0.00,,---,0.00,VWS V14.01,2013-01-19 19:32:00,
2013-01-19 11:37:00,24.4,20.6,28.55,SSE,158,0.0,0.0,85,0.00,,---,0.00,VWS V14.01,2013-01-19 19:37:00,
2013-01-19 11:43:00,26.2,22.6,28.55,SSE,158,0.0,0.0,86,0.00,,---,0.00,VWS V14.01,2013-01-19 19:43:00,
2013-01-19 11:48:00,27.0,22.8,28.55,SSE,158,0.0,0.0,84,0.00,,---,0.00,VWS V14.01,2013-01-19 19:48:00,
2013-01-19 11:53:00,27.7,22.9,28.55,SSE,158,0.0,0.0,82,0.00,,---,0.00,VWS V14.01,2013-01-19 19:53:00,
2013-01-19 11:58:00,27.5,21.5,28.55,SSE,158,0.0,0.0,78,0.00,,---,0.00,VWS V14.01,2013-01-19 19:58:00,
2013-01-19 12:03:00,27.0,20.7,28.52,SSE,158,0.0,0.0,77,0.00,,---,0.00,VWS V14.01,2013-01-19 20:03:00,
2013-01-19 12:08:00,26.6,20.1,28.52,SSE,158,0.0,0.0,76,0.00,,---,0.00,VWS V14.01,2013-01-19 20:08:00,
2013-01-19 12:14:00,26.2,19.1,28.52,SSE,158,0.0,0.0,74,0.00,,---,0.00,VWS V14.01,2013-01-19 20:14:00,
2013-01-19 12:19:00,26.1,18.9,28.52,SSE,158,0.0,0.0,74,0.00,,---,0.00,VWS V14.01,2013-01-19 20:19:00,
2013-01-19 12:24:00,26.1,18.9,28.52,SSE,158,0.0,0.0,74,0.00,,---,0.00,VWS V14.01,2013-01-19 20:24:00,
2013-01-19 12:29:00,25.7,18.6,28.52,SSE,158,0.0,0.0,74,0.00,,---,0.00,VWS V14.01,2013-01-19 20:29:00,
2013-01-19 12:34:00,25.7,18.6,28.52,SSE,158,0.0,0.0,74,0.00,,---,0.00,VWS V14.01,2013-01-19 20:34:00,
2013-01-19 12:39:00,25.2,18.0,28.52,SSE,158,0.0,0.0,74,0.00,,---,0.00,VWS V14.01,2013-01-19 20:39:00,
2013-01-19 12:44:00,24.8,18.0,28.52,SSE,158,0.0,0.0,75,0.00,,---,0.00,VWS V14.01,2013-01-19 20:44:00,
2013-01-19 12:49:00,24.8,18.0,28.52,SSE,158,0.0,0.0,75,0.00,,---,0.00,VWS V14.01,2013-01-19 20:49:00,
2013-01-19 12:54:00,24.8,18.3,28.52,SSE,158,0.0,0.0,76,0.00,,---,0.00,VWS V14.01,2013-01-19 20:54:00,
2013-01-19 12:59:00,25.2,18.7,28.52,SSE,158,0.0,0.0,76,0.00,,---,0.00,VWS V14.01,2013-01-19 20:59:00,
2013-01-19 13:04:00,25.3,19.1,28.52,SSE,158,0.0,0.0,77,0.00,,---,0.00,VWS V14.01,2013-01-19 21:04:00,
2013-01-19 13:10:00,25.7,19.5,28.52,SSE,158,0.0,0.0,77,0.00,,---,0.00,VWS V14.01,2013-01-19 21:10:00,
2013-01-19 13:15:00,25.5,19.3,28.52,SSE,158,0.0,0.0,77,0.00,,---,0.00,VWS V14.01,2013-01-19 21:15:00,
2013-01-19 13:20:00,25.3,19.1,28.52,SSE,158,0.0,0.0,77,0.00,,---,0.00,VWS V14.01,2013-01-19 21:20:00,
2013-01-19 13:25:00,25.0,18.5,28.52,SSE,158,0.0,0.0,76,0.00,,---,0.00,VWS V14.01,2013-01-19 21:25:00,
2013-01-19 13:30:00,24.8,18.6,28.52,SSE,158,0.0,0.0,77,0.00,,---,0.00,VWS V14.01,2013-01-19 21:30:00,
2013-01-19 13:35:00,24.6,18.5,28.52,SSE,158,0.0,0.0,77,0.00,,---,0.00,VWS V14.01,2013-01-19 21:35:00,
2013-01-19 13:40:00,24.3,18.1,28.52,SSE,158,0.0,0.0,77,0.00,,---,0.00,VWS V14.01,2013-01-19 21:40:00,
2013-01-19 13:45:00,24.1,18.2,28.52,SSE,158,0.0,0.0,78,0.00,,---,0.00,VWS V14.01,2013-01-19 21:45:00,
2013-01-19 13:51:00,24.3,18.4,28.52,SSE,158,0.0,0.0,78,0.00,,---,0.00,VWS V14.01,2013-01-19 21:51:00,
2013-01-19 13:56:00,24.3,18.7,28.52,SSE,158,0.0,0.0,79,0.00,,---,0.00,VWS V14.01,2013-01-19 21:56:00,
2013-01-19 14:01:00,24.3,18.7,28.52,SSE,158,0.0,0.0,79,0.00,,---,0.00,VWS V14.01,2013-01-19 22:01:00,
2013-01-19 14:06:00,24.1,18.5,28.52,SSE,158,0.0,0.0,79,0.00,,---,0.00,VWS V14.01,2013-01-19 22:06:00,
2013-01-19 14:12:00,24.1,18.8,28.52,SSE,158,0.0,0.0,80,0.00,,---,0.00,VWS V14.01,2013-01-19 22:12:00,
2013-01-19 14:17:00,24.1,18.8,28.52,SSE,158,0.0,0.0,80,0.00,,---,0.00,VWS V14.01,2013-01-19 22:17:00,
2013-01-19 14:22:00,24.3,19.0,28.52,SSE,158,0.0,0.0,80,0.00,,---,0.00,VWS V14.01,2013-01-19 22:22:00,
2013-01-19 14:27:00,24.3,19.0,28.52,SSE,158,0.0,0.0,80,0.00,,---,0.00,VWS V14.01,2013-01-19 22:27:00,
2013-01-19 14:32:00,24.1,18.8,28.52,SSE,158,0.0,0.0,80,0.00,,---,0.00,VWS V14.01,2013-01-19 22:32:00,
2013-01-19 14:37:00,23.9,18.6,28.52,SSE,158,0.0,0.0,80,0.00,,---,0.00,VWS V14.01,2013-01-19 22:37:00,
2013-01-19 14:42:00,23.7,18.5,28.52,SSE,158,0.0,0.0,80,0.00,,---,0.00,VWS V14.01,2013-01-19 22:42:00,
2013-01-19 14:47:00,23.7,18.5,28.52,SSE,158,0.0,0.0,80,0.00,,---,0.00,VWS V14.01,2013-01-19 22:47:00,
2013-01-19 14:53:00,23.7,18.8,28.52,SSE,158,0.0,0.0,81,0.00,,---,0.00,VWS V14.01,2013-01-19 22:53:00,
2013-01-19 14:58:00,23.7,18.8,28.52,SSE,158,0.0,0.0,81,0.00,,---,0.00,VWS V14.01,2013-01-19 22:58:00,
2013-01-19 15:03:00,23.7,18.8,28.52,SSE,158,0.0,0.0,81,0.00,,---,0.00,VWS V14.01,2013-01-19 23:03:00,
2013-01-19 15:09:00,23.5,18.6,28.52,SSE,158,0.0,0.0,81,0.00,,---,0.00,VWS V14.01,2013-01-19 23:09:00,
2013-01-19 15:13:00,23.4,18.4,28.52,SSE,158,0.0,0.0,81,0.00,,---,0.00,VWS V14.01,2013-01-19 23:13:00,
2013-01-19 15:19:00,23.2,18.2,28.52,SSE,158,0.0,0.0,81,0.00,,---,0.00,VWS V14.01,2013-01-19 23:19:00,
2013-01-19 15:24:00,23.0,18.0,28.52,SSE,158,0.0,0.0,81,0.00,,---,0.00,VWS V14.01,2013-01-19 23:24:00,
2013-01-19 15:29:00,22.8,17.9,28.52,SSE,158,0.0,0.0,81,0.00,,---,0.00,VWS V14.01,2013-01-19 23:29:00,
2013-01-19 15:34:00,22.8,17.9,28.52,SSE,158,0.0,0.0,81,0.00,,---,0.00,VWS V14.01,2013-01-19 23:34:00,
2013-01-19 15:39:00,22.3,17.4,28.52,SSE,158,0.0,0.0,81,0.00,,---,0.00,VWS V14.01,2013-01-19 23:39:00,
2013-01-19 15:44:00,21.9,17.0,28.52,SSE,158,0.0,0.0,81,0.00,,---,0.00,VWS V14.01,2013-01-19 23:44:00,
2013-01-19 15:49:00,21.9,17.3,28.52,SSE,158,0.0,0.0,82,0.00,,---,0.00,VWS V14.01,2013-01-19 23:49:00,
2013-01-19 15:54:00,21.7,17.1,28.52,SSE,158,0.0,0.0,82,0.00,,---,0.00,VWS V14.01,2013-01-19 23:54:00,
2013-01-19 15:59:00,21.6,16.9,28.52,SSE,158,0.0,0.0,82,0.00,,---,0.00,VWS V14.01,2013-01-19 23:59:00,
2013-01-19 16:04:00,21.4,16.8,28.52,SSE,158,0.0,0.0,82,0.00,,---,0.00,VWS V14.01,2013-01-20 00:04:00,
2013-01-19 16:09:00,21.4,16.8,28.52,SSE,158,0.0,0.0,82,0.00,,---,0.00,VWS V14.01,2013-01-20 00:09:00,
2013-01-19 16:14:00,21.2,16.9,28.52,SSE,158,0.0,0.0,83,0.00,,---,0.00,VWS V14.01,2013-01-20 00:14:00,
2013-01-19 16:19:00,20.7,16.0,28.52,SSE,158,0.0,0.0,82,0.00,,---,0.00,VWS V14.01,2013-01-20 00:19:00,
2013-01-19 16:25:00,20.8,16.2,28.52,SSE,158,0.0,0.0,82,0.00,,---,0.00,VWS V14.01,2013-01-20 00:25:00,
2013-01-19 16:30:00,20.5,16.1,28.52,SSE,158,0.0,0.0,83,0.00,,---,0.00,VWS V14.01,2013-01-20 00:30:00,
2013-01-19 16:35:00,19.9,15.3,28.52,SSE,158,0.0,0.0,82,0.00,,---,0.00,VWS V14.01,2013-01-20 00:35:00,
2013-01-19 16:40:00,19.6,15.0,28.52,SSE,158,0.0,0.0,82,0.00,,---,0.00,VWS V14.01,2013-01-20 00:40:00,
2013-01-19 16:45:00,19.4,15.1,28.55,SSE,158,0.0,0.0,83,0.00,,---,0.00,VWS V14.01,2013-01-20 00:45:00,
2013-01-19 16:50:00,19.4,15.1,28.55,SSE,158,0.0,0.0,83,0.00,,---,0.00,VWS V14.01,2013-01-20 00:50:00,
2013-01-19 16:55:00,18.9,14.6,28.55,SSE,158,0.0,0.0,83,0.00,,---,0.00,VWS V14.01,2013-01-20 00:55:00,
2013-01-19 17:00:00,18.3,14.0,28.55,SSE,158,0.0,0.0,83,0.00,,---,0.00,VWS V14.01,2013-01-20 01:00:00,
2013-01-19 17:05:00,18.3,14.0,28.55,SSE,158,0.0,0.0,83,0.00,,---,0.00,VWS V14.01,2013-01-20 01:05:00,
2013-01-19 17:10:00,18.3,14.0,28.55,SSE,158,0.0,0.0,83,0.00,,---,0.00,VWS V14.01,2013-01-20 01:10:00,
2013-01-19 17:16:00,17.8,13.8,28.55,SSE,158,0.0,0.0,84,0.00,,---,0.00,VWS V14.01,2013-01-20 01:16:00,
2013-01-19 17:21:00,17.4,13.4,28.55,SSE,158,0.0,0.0,84,0.00,,---,0.00,VWS V14.01,2013-01-20 01:21:00,
2013-01-19 17:26:00,17.4,13.4,28.55,SSE,158,0.0,0.0,84,0.00,,---,0.00,VWS V14.01,2013-01-20 01:26:00,
2013-01-19 17:31:00,17.4,13.7,28.55,SSE,158,0.0,0.0,85,0.00,,---,0.00,VWS V14.01,2013-01-20 01:31:00,
2013-01-19 17:36:00,16.9,12.9,28.55,SSE,158,0.0,0.0,84,0.00,,---,0.00,VWS V14.01,2013-01-20 01:36:00,
2013-01-19 17:42:00,16.7,12.7,28.55,SSE,158,0.0,0.0,84,0.00,,---,0.00,VWS V14.01,2013-01-20 01:42:00,
2013-01-19 17:47:00,16.7,12.7,28.55,SSE,158,0.0,0.0,84,0.00,,---,0.00,VWS V14.01,2013-01-20 01:47:00,
2013-01-19 17:52:00,16.2,12.2,28.55,SSE,158,0.0,0.0,84,0.00,,---,0.00,VWS V14.01,2013-01-20 01:52:00,
2013-01-19 17:57:00,16.0,12.0,28.55,SSE,158,0.0,0.0,84,0.00,,---,0.00,VWS V14.01,2013-01-20 01:57:00,
2013-01-19 18:02:00,15.8,11.8,28.55,SSE,158,0.0,0.0,84,0.00,,---,0.00,VWS V14.01,2013-01-20 02:02:00,
2013-01-19 18:08:00,15.4,11.5,28.55,SSE,158,0.0,0.0,84,0.00,,---,0.00,VWS V14.01,2013-01-20 02:08:00,
2013-01-19 18:13:00,15.8,12.1,28.55,SSE,158,0.0,0.0,85,0.00,,---,0.00,VWS V14.01,2013-01-20 02:13:00,
2013-01-19 18:18:00,15.6,11.9,28.55,SSE,158,0.0,0.0,85,0.00,,---,0.00,VWS V14.01,2013-01-20 02:18:00,
2013-01-19 18:23:00,15.1,11.1,28.55,SSE,158,0.0,0.0,84,0.00,,---,0.00,VWS V14.01,2013-01-20 02:23:00,
2013-01-19 18:28:00,15.1,11.1,28.55,SSE,158,0.0,0.0,84,0.00,,---,0.00,VWS V14.01,2013-01-20 02:28:00,
2013-01-19 18:33:00,14.5,10.6,28.55,SSE,158,0.0,0.0,84,0.00,,---,0.00,VWS V14.01,2013-01-20 02:33:00,
2013-01-19 18:38:00,14.4,10.1,28.55,SSE,158,0.0,0.0,83,0.00,,---,0.00,VWS V14.01,2013-01-20 02:38:00,
2013-01-19 18:43:00,14.5,10.6,28.55,SSE,158,0.0,0.0,84,0.00,,---,0.00,VWS V14.01,2013-01-20 02:43:00,
2013-01-19 18:48:00,14.4,10.7,28.55,SSE,158,0.0,0.0,85,0.00,,---,0.00,VWS V14.01,2013-01-20 02:48:00,
2013-01-19 18:54:00,14.2,10.2,28.55,SSE,158,0.0,0.0,84,0.00,,---,0.00,VWS V14.01,2013-01-20 02:54:00,
2013-01-19 18:59:00,14.0,10.1,28.55,SSE,158,0.0,0.0,84,0.00,,---,0.00,VWS V14.01,2013-01-20 02:59:00,
2013-01-19 19:04:00,14.2,10.2,28.55,SSE,158,0.0,0.0,84,0.00,,---,0.00,VWS V14.01,2013-01-20 03:04:00,
2013-01-19 19:09:00,14.2,10.5,28.55,SSE,158,0.0,0.0,85,0.00,,---,0.00,VWS V14.01,2013-01-20 03:09:00,
2013-01-19 19:14:00,14.0,10.3,28.55,SSE,158,0.0,0.0,85,0.00,,---,0.00,VWS V14.01,2013-01-20 03:14:00,
2013-01-19 19:19:00,13.8,10.1,28.55,SSE,158,0.0,0.0,85,0.00,,---,0.00,VWS V14.01,2013-01-20 03:19:00,
2013-01-19 19:24:00,13.8,10.1,28.55,SSE,158,0.0,0.0,85,0.00,,---,0.00,VWS V14.01,2013-01-20 03:24:00,
2013-01-19 19:29:00,14.2,10.5,28.55,SSE,158,0.0,0.0,85,0.00,,---,0.00,VWS V14.01,2013-01-20 03:29:00,
2013-01-19 19:34:00,14.2,10.5,28.55,SSE,158,0.0,0.0,85,0.00,,---,0.00,VWS V14.01,2013-01-20 03:34:00,
2013-01-19 19:39:00,14.2,10.8,28.55,SSE,158,0.0,0.0,86,0.00,,---,0.00,VWS V14.01,2013-01-20 03:39:00,
2013-01-19 19:44:00,14.0,10.6,28.55,SSE,158,0.0,0.0,86,0.00,,---,0.00,VWS V14.01,2013-01-20 03:44:00,
2013-01-19 19:49:00,14.2,10.8,28.55,SSE,158,0.0,0.0,86,0.00,,---,0.00,VWS V14.01,2013-01-20 03:49:00,
2013-01-19 19:54:00,13.8,10.4,28.55,SSE,158,0.0,0.0,86,0.00,,---,0.00,VWS V14.01,2013-01-20 03:54:00,
2013-01-19 19:59:00,13.8,10.4,28.55,SSE,158,0.0,0.0,86,0.00,,---,0.00,VWS V14.01,2013-01-20 03:59:00,
2013-01-19 20:04:00,13.6,10.2,28.55,SSE,158,0.0,0.0,86,0.00,,---,0.00,VWS V14.01,2013-01-20 04:04:00,
2013-01-19 20:09:00,13.6,10.2,28.55,SSE,158,0.0,0.0,86,0.00,,---,0.00,VWS V14.01,2013-01-20 04:09:00,
2013-01-19 20:14:00,13.8,10.4,28.55,SSE,158,0.0,0.0,86,0.00,,---,0.00,VWS V14.01,2013-01-20 04:14:00,
2013-01-19 20:19:00,13.6,10.2,28.55,SSE,158,0.0,0.0,86,0.00,,---,0.00,VWS V14.01,2013-01-20 04:19:00,
2013-01-19 20:24:00,13.8,10.4,28.55,SSE,158,0.0,0.0,86,0.00,,---,0.00,VWS V14.01,2013-01-20 04:24:00,
2013-01-19 20:30:00,13.6,10.2,28.55,SSE,158,0.0,0.0,86,0.00,,---,0.00,VWS V14.01,2013-01-20 04:30:00,
2013-01-19 20:35:00,13.6,10.2,28.55,SSE,158,0.0,0.0,86,0.00,,---,0.00,VWS V14.01,2013-01-20 04:35:00,
2013-01-19 20:40:00,13.6,10.2,28.55,SSE,158,0.0,0.0,86,0.00,,---,0.00,VWS V14.01,2013-01-20 04:40:00,
2013-01-19 20:45:00,13.6,10.2,28.55,SSE,158,0.0,0.0,86,0.00,,---,0.00,VWS V14.01,2013-01-20 04:45:00,
2013-01-19 20:50:00,13.6,10.2,28.55,SSE,158,0.0,0.0,86,0.00,,---,0.00,VWS V14.01,2013-01-20 04:50:00,
2013-01-19 20:55:00,13.5,10.1,28.55,SSE,158,0.0,0.0,86,0.00,,---,0.00,VWS V14.01,2013-01-20 04:55:00,
2013-01-19 21:01:00,13.5,10.1,28.55,SSE,158,0.0,0.0,86,0.00,,---,0.00,VWS V14.01,2013-01-20 05:01:00,
2013-01-19 21:06:00,12.9,9.5,28.55,SSE,158,0.0,0.0,86,0.00,,---,0.00,VWS V14.01,2013-01-20 05:06:00,
2013-01-19 21:12:00,12.9,9.5,28.55,SSE,158,0.0,0.0,86,0.00,,---,0.00,VWS V14.01,2013-01-20 05:12:00,
2013-01-19 21:17:00,12.9,9.5,28.58,SSE,158,0.0,0.0,86,0.00,,---,0.00,VWS V14.01,2013-01-20 05:17:00,
2013-01-19 21:22:00,13.1,9.7,28.58,SSE,158,0.0,0.0,86,0.00,,---,0.00,VWS V14.01,2013-01-20 05:22:00,
2013-01-19 21:27:00,12.6,9.2,28.58,SSE,158,0.0,0.0,86,0.00,,---,0.00,VWS V14.01,2013-01-20 05:27:00,
2013-01-19 21:32:00,12.6,9.2,28.58,SSE,158,0.0,0.0,86,0.00,,---,0.00,VWS V14.01,2013-01-20 05:32:00,
2013-01-19 21:37:00,12.4,9.0,28.58,SSE,158,0.0,0.0,86,0.00,,---,0.00,VWS V14.01,2013-01-20 05:37:00,
2013-01-19 21:42:00,12.2,8.8,28.58,SSE,158,0.0,0.0,86,0.00,,---,0.00,VWS V14.01,2013-01-20 05:42:00,
2013-01-19 21:47:00,11.8,8.5,28.58,SSE,158,0.0,0.0,86,0.00,,---,0.00,VWS V14.01,2013-01-20 05:47:00,
2013-01-19 21:52:00,11.8,8.5,28.58,SSE,158,0.0,0.0,86,0.00,,---,0.00,VWS V14.01,2013-01-20 05:52:00,
2013-01-19 21:57:00,11.7,8.3,28.58,SSE,158,0.0,0.0,86,0.00,,---,0.00,VWS V14.01,2013-01-20 05:57:00,
2013-01-19 22:02:00,11.3,7.9,28.58,SSE,158,0.0,0.0,86,0.00,,---,0.00,VWS V14.01,2013-01-20 06:02:00,
2013-01-19 22:07:00,11.7,8.3,28.58,SSE,158,0.0,0.0,86,0.00,,---,0.00,VWS V14.01,2013-01-20 06:07:00,
2013-01-19 22:12:00,11.1,7.8,28.58,SSE,158,0.0,0.0,86,0.00,,---,0.00,VWS V14.01,2013-01-20 06:12:00,
2013-01-19 22:17:00,11.1,7.8,28.58,SSE,158,0.0,0.0,86,0.00,,---,0.00,VWS V14.01,2013-01-20 06:17:00,
2013-01-19 22:22:00,11.1,7.8,28.58,SSE,158,0.0,0.0,86,0.00,,---,0.00,VWS V14.01,2013-01-20 06:22:00,
2013-01-19 22:27:00,10.8,7.4,28.58,SSE,158,0.0,0.0,86,0.00,,---,0.00,VWS V14.01,2013-01-20 06:27:00,
2013-01-19 22:32:00,10.6,7.2,28.58,SSE,158,0.0,0.0,86,0.00,,---,0.00,VWS V14.01,2013-01-20 06:32:00,
2013-01-19 22:37:00,10.6,7.2,28.58,SSE,158,0.0,0.0,86,0.00,,---,0.00,VWS V14.01,2013-01-20 06:37:00,
2013-01-19 22:42:00,10.8,7.4,28.58,SSE,158,0.0,0.0,86,0.00,,---,0.00,VWS V14.01,2013-01-20 06:42:00,
2013-01-19 22:47:00,10.2,6.9,28.58,SSE,158,0.0,0.0,86,0.00,,---,0.00,VWS V14.01,2013-01-20 06:47:00,
2013-01-19 22:52:00,10.2,6.9,28.58,SSE,158,0.0,0.0,86,0.00,,---,0.00,VWS V14.01,2013-01-20 06:52:00,
2013-01-19 22:57:00,10.2,6.9,28.58,SSE,158,0.0,0.0,86,0.00,,---,0.00,VWS V14.01,2013-01-20 06:57:00,
2013-01-19 23:02:00,9.9,6.5,28.58,SSE,158,0.0,0.0,86,0.00,,---,0.00,VWS V14.01,2013-01-20 07:02:00,
2013-01-19 23:07:00,9.7,6.3,28.58,SSE,158,0.0,0.0,86,0.00,,---,0.00,VWS V14.01,2013-01-20 07:07:00,
2013-01-19 23:12:00,9.7,6.3,28.58,SSE,158,0.0,0.0,86,0.00,,---,0.00,VWS V14.01,2013-01-20 07:12:00,
2013-01-19 23:17:00,9.7,6.3,28.58,SSE,158,0.0,0.0,86,0.00,,---,0.00,VWS V14.01,2013-01-20 07:17:00,
2013-01-19 23:22:00,9.5,6.2,28.58,SSE,158,0.0,0.0,86,0.00,,---,0.00,VWS V14.01,2013-01-20 07:22:00,
2013-01-19 23:27:00,9.7,6.3,28.58,SSE,158,0.0,0.0,86,0.00,,---,0.00,VWS V14.01,2013-01-20 07:27:00,
2013-01-19 23:32:00,9.5,6.2,28.58,SSE,158,0.0,0.0,86,0.00,,---,0.00,VWS V14.01,2013-01-20 07:32:00,
2013-01-19 23:37:00,9.3,6.0,28.58,SSE,158,0.0,0.0,86,0.00,,---,0.00,VWS V14.01,2013-01-20 07:37:00,
2013-01-19 23:42:00,9.7,6.3,28.58,SSE,158,0.0,0.0,86,0.00,,---,0.00,VWS V14.01,2013-01-20 07:42:00,
2013-01-19 23:47:00,9.7,6.3,28.58,SSE,158,0.0,0.0,86,0.00,,---,0.00,VWS V14.01,2013-01-20 07:47:00,
2013-01-19 23:52:00,9.1,5.8,28.58,SSE,158,0.0,0.0,86,0.00,,---,0.00,VWS V14.01,2013-01-20 07:52:00,
2013-01-19 23:57:00,9.1,5.8,28.58,SSE,158,0.0,0.0,86,0.00,,---,0.00,VWS V14.01,2013-01-20 07:57:00,